createdAt,value
2019-03-06T00:00:39.028Z,7.16
2019-03-06T00:01:21.159Z,7.06
2019-03-06T00:01:56.747Z,7.06
2019-03-06T00:02:32.140Z,7.02
2019-03-06T00:03:07.894Z,7.05
2019-03-06T00:03:43.570Z,7.02
2019-03-06T00:04:19.233Z,7.04
2019-03-06T00:04:54.681Z,7.11
2019-03-06T00:05:30.063Z,7.16
2019-03-06T00:06:05.447Z,7.11
2019-03-06T00:06:41.174Z,7.17
2019-03-06T00:07:16.583Z,7.17
2019-03-06T00:07:52.277Z,7.10
2019-03-06T00:08:28.225Z,7.11
2019-03-06T00:09:05.543Z,7.14
2019-03-06T00:09:41.028Z,7.17
2019-03-06T00:10:27.634Z,7.22
2019-03-06T00:11:03.293Z,7.15
2019-03-06T00:11:39.241Z,7.17
2019-03-06T00:12:14.640Z,7.16
2019-03-06T00:12:50.048Z,7.26
2019-03-06T00:13:25.537Z,7.22
2019-03-06T00:14:01.173Z,7.17
2019-03-06T00:14:36.562Z,7.16
2019-03-06T00:15:11.950Z,7.16
2019-03-06T00:15:47.312Z,7.20
2019-03-06T00:16:22.931Z,7.22
2019-03-06T00:16:58.550Z,7.22
2019-03-06T00:17:33.960Z,7.28
2019-03-06T00:18:09.352Z,7.23
2019-03-06T00:18:44.995Z,7.23
2019-03-06T00:19:20.454Z,7.10
2019-03-06T00:19:56.195Z,7.10
2019-03-06T00:20:31.564Z,7.34
2019-03-06T00:21:07.202Z,7.34
2019-03-06T00:21:42.631Z,7.26
2019-03-06T00:22:17.999Z,7.25
2019-03-06T00:22:53.399Z,7.25
2019-03-06T00:23:28.764Z,7.25
2019-03-06T00:24:04.336Z,7.25
2019-03-06T00:24:39.704Z,7.32
2019-03-06T00:25:15.751Z,7.35
2019-03-06T00:25:51.379Z,7.35
2019-03-06T00:26:26.751Z,7.32
2019-03-06T00:27:02.136Z,7.31
2019-03-06T00:27:37.538Z,7.30
2019-03-06T00:28:12.930Z,7.34
2019-03-06T00:28:48.884Z,7.30
2019-03-06T00:29:24.293Z,7.28
2019-03-06T00:29:59.663Z,7.22
2019-03-06T00:30:35.275Z,7.16
2019-03-06T00:31:11.031Z,7.26
2019-03-06T00:31:46.665Z,7.26
2019-03-06T00:32:22.289Z,7.39
2019-03-06T00:32:58.261Z,7.23
2019-03-06T00:33:33.623Z,7.21
2019-03-06T00:34:09.548Z,7.23
2019-03-06T00:34:44.927Z,7.15
2019-03-06T00:35:23.473Z,7.06
2019-03-06T00:35:59.147Z,7.11
2019-03-06T00:36:35.042Z,7.04
2019-03-06T00:37:10.447Z,6.97
2019-03-06T00:37:45.835Z,7.02
2019-03-06T00:38:21.202Z,6.95
2019-03-06T00:38:56.726Z,6.89
2019-03-06T00:39:39.614Z,6.90
2019-03-06T00:40:23.477Z,6.94
2019-03-06T00:41:12.706Z,6.92
2019-03-06T00:41:50.693Z,6.88
2019-03-06T00:42:26.403Z,6.98
2019-03-06T00:43:02.065Z,6.95
2019-03-06T00:43:38.446Z,7.04
2019-03-06T00:44:14.484Z,6.97
2019-03-06T00:44:49.859Z,6.97
2019-03-06T00:45:25.251Z,7.07
2019-03-06T00:46:00.880Z,7.16
2019-03-06T00:46:36.446Z,7.18
2019-03-06T00:47:12.190Z,7.11
2019-03-06T00:47:47.949Z,7.13
2019-03-06T00:48:23.564Z,7.16
2019-03-06T00:48:58.969Z,7.20
2019-03-06T00:49:36.169Z,7.21
2019-03-06T00:50:12.295Z,7.16
2019-03-06T00:50:47.668Z,7.14
2019-03-06T00:51:23.082Z,7.21
2019-03-06T00:51:58.723Z,7.17
2019-03-06T00:52:34.503Z,7.22
2019-03-06T00:53:09.948Z,7.15
2019-03-06T00:53:45.338Z,7.09
2019-03-06T00:54:20.720Z,7.11
2019-03-06T00:54:56.387Z,7.07
2019-03-06T00:55:32.075Z,7.05
2019-03-06T00:56:07.562Z,7.15
2019-03-06T00:56:43.232Z,7.16
2019-03-06T00:57:19.324Z,7.18
2019-03-06T00:57:55.051Z,7.18
2019-03-06T00:58:30.495Z,7.17
2019-03-06T00:59:06.164Z,7.26
2019-03-06T00:59:41.697Z,7.29
2019-03-06T01:00:19.005Z,7.29
2019-03-06T01:00:55.428Z,7.34
2019-03-06T01:01:31.058Z,7.39
2019-03-06T01:02:06.747Z,7.41
2019-03-06T01:02:42.241Z,7.41
2019-03-06T01:03:17.983Z,7.33
2019-03-06T01:03:53.476Z,7.28
2019-03-06T01:04:29.160Z,7.27
2019-03-06T01:05:05.042Z,7.32
2019-03-06T01:05:40.665Z,7.31
2019-03-06T01:06:16.452Z,7.39
2019-03-06T01:06:51.830Z,7.45
2019-03-06T01:07:27.764Z,7.41
2019-03-06T01:08:03.370Z,7.38
2019-03-06T01:08:38.773Z,7.29
2019-03-06T01:09:14.435Z,7.32
2019-03-06T01:09:50.128Z,7.18
2019-03-06T01:10:25.789Z,7.23
2019-03-06T01:11:01.269Z,7.17
2019-03-06T01:11:36.925Z,7.26
2019-03-06T01:12:12.378Z,7.30
2019-03-06T01:12:47.898Z,7.27
2019-03-06T01:13:23.344Z,7.34
2019-03-06T01:13:58.753Z,7.30
2019-03-06T01:14:34.387Z,7.32
2019-03-06T01:15:10.072Z,7.31
2019-03-06T01:15:45.571Z,7.31
2019-03-06T01:16:20.978Z,7.31
2019-03-06T01:16:56.589Z,7.41
2019-03-06T01:17:32.533Z,7.46
2019-03-06T01:18:08.224Z,7.46
2019-03-06T01:18:43.654Z,7.52
2019-03-06T01:19:19.239Z,7.50
2019-03-06T01:19:54.944Z,7.40
2019-03-06T01:20:30.478Z,7.39
2019-03-06T01:21:05.877Z,7.38
2019-03-06T01:21:41.579Z,7.34
2019-03-06T01:22:16.995Z,7.59
2019-03-06T01:22:52.473Z,7.55
2019-03-06T01:23:27.868Z,7.50
2019-03-06T01:24:03.245Z,7.50
2019-03-06T01:24:38.621Z,7.45
2019-03-06T01:25:14.218Z,7.48
2019-03-06T01:25:49.636Z,7.46
2019-03-06T01:26:25.260Z,7.50
2019-03-06T01:27:00.655Z,7.50
2019-03-06T01:27:36.326Z,7.50
2019-03-06T01:28:12.068Z,7.40
2019-03-06T01:28:47.788Z,7.38
2019-03-06T01:29:23.209Z,7.46
2019-03-06T01:29:58.830Z,7.42
2019-03-06T01:30:34.483Z,7.42
2019-03-06T01:31:10.200Z,7.30
2019-03-06T01:31:45.796Z,7.27
2019-03-06T01:32:21.515Z,7.23
2019-03-06T01:33:02.111Z,7.17
2019-03-06T01:33:56.478Z,7.10
2019-03-06T01:34:51.127Z,7.10
2019-03-06T01:35:48.861Z,7.02
2019-03-06T01:36:46.123Z,7.00
2019-03-06T01:37:32.312Z,6.95
2019-03-06T01:38:31.160Z,6.93
2019-03-06T01:39:41.622Z,6.82
2019-03-06T01:40:28.552Z,6.82
2019-03-06T01:41:23.176Z,6.87
2019-03-06T01:42:17.546Z,7.01
2019-03-06T01:43:08.244Z,7.01
2019-03-06T01:43:51.386Z,7.03
2019-03-06T01:44:51.835Z,6.89
2019-03-06T01:45:27.246Z,6.81
2019-03-06T01:46:02.641Z,6.71
2019-03-06T01:46:38.041Z,6.67
2019-03-06T01:47:13.737Z,6.67
2019-03-06T01:47:49.116Z,6.64
2019-03-06T01:48:24.871Z,6.60
2019-03-06T01:49:00.237Z,6.60
2019-03-06T01:49:35.876Z,6.60
2019-03-06T01:50:14.146Z,6.54
2019-03-06T01:50:49.809Z,6.53
2019-03-06T01:51:25.383Z,6.53
2019-03-06T01:52:00.933Z,6.53
2019-03-06T01:52:36.556Z,6.52
2019-03-06T01:53:11.987Z,6.56
2019-03-06T01:53:47.977Z,6.56
2019-03-06T01:54:23.368Z,6.63
2019-03-06T01:54:59.277Z,6.66
2019-03-06T01:55:34.939Z,6.64
2019-03-06T01:56:11.069Z,6.65
2019-03-06T01:56:47.181Z,6.65
2019-03-06T01:57:22.543Z,6.66
2019-03-06T01:57:58.202Z,6.64
2019-03-06T01:58:33.593Z,6.62
2019-03-06T01:59:09.199Z,6.61
2019-03-06T01:59:44.868Z,6.52
2019-03-06T02:00:20.340Z,6.56
2019-03-06T02:00:55.739Z,6.50
2019-03-06T02:01:31.121Z,6.50
2019-03-06T02:02:06.498Z,6.53
2019-03-06T02:02:41.884Z,6.51
2019-03-06T02:03:17.718Z,6.55
2019-03-06T02:03:53.422Z,6.56
2019-03-06T02:04:29.052Z,6.56
2019-03-06T02:05:04.767Z,6.55
2019-03-06T02:05:40.430Z,6.36
2019-03-06T02:06:16.215Z,6.53
2019-03-06T02:06:51.860Z,6.53
2019-03-06T02:07:27.529Z,6.48
2019-03-06T02:08:03.180Z,6.50
2019-03-06T02:08:38.592Z,6.48
2019-03-06T02:09:15.239Z,6.48
2019-03-06T02:09:50.632Z,6.50
2019-03-06T02:10:26.468Z,6.45
2019-03-06T02:11:02.510Z,6.48
2019-03-06T02:11:38.218Z,6.48
2019-03-06T02:12:13.931Z,6.48
2019-03-06T02:12:49.337Z,6.38
2019-03-06T02:13:24.926Z,6.41
2019-03-06T02:14:00.335Z,6.43
2019-03-06T02:14:36.155Z,6.37
2019-03-06T02:15:12.676Z,6.37
2019-03-06T02:15:48.095Z,6.37
2019-03-06T02:16:23.473Z,6.40
2019-03-06T02:16:58.858Z,6.40
2019-03-06T02:17:34.249Z,6.36
2019-03-06T02:18:09.661Z,6.38
2019-03-06T02:18:45.709Z,6.37
2019-03-06T02:19:21.091Z,6.35
2019-03-06T02:19:57.043Z,6.35
2019-03-06T02:20:32.460Z,6.38
2019-03-06T02:21:07.905Z,6.38
2019-03-06T02:21:43.698Z,6.38
2019-03-06T02:22:19.106Z,6.38
2019-03-06T02:22:54.732Z,6.31
2019-03-06T02:23:30.106Z,6.31
2019-03-06T02:24:05.537Z,6.37
2019-03-06T02:24:41.200Z,6.40
2019-03-06T02:25:16.662Z,6.39
2019-03-06T02:25:52.497Z,6.31
2019-03-06T02:26:28.145Z,6.31
2019-03-06T02:27:03.523Z,6.28
2019-03-06T02:27:38.953Z,6.27
2019-03-06T02:28:14.352Z,6.27
2019-03-06T02:28:49.808Z,6.29
2019-03-06T02:29:25.459Z,6.28
2019-03-06T02:30:00.911Z,6.28
2019-03-06T02:30:36.414Z,6.28
2019-03-06T02:31:12.176Z,6.48
2019-03-06T02:31:47.823Z,6.48
2019-03-06T02:32:23.214Z,6.53
2019-03-06T02:32:58.601Z,6.43
2019-03-06T02:33:33.984Z,6.38
2019-03-06T02:34:09.564Z,6.38
2019-03-06T02:34:44.964Z,6.40
2019-03-06T02:35:21.570Z,6.38
2019-03-06T02:35:57.001Z,6.36
2019-03-06T02:36:32.373Z,6.28
2019-03-06T02:37:08.060Z,6.24
2019-03-06T02:37:43.892Z,6.24
2019-03-06T02:38:19.469Z,6.23
2019-03-06T02:38:55.137Z,6.23
2019-03-06T02:39:30.554Z,6.18
2019-03-06T02:40:06.074Z,6.18
2019-03-06T02:40:41.915Z,6.17
2019-03-06T02:41:17.416Z,6.15
2019-03-06T02:41:52.794Z,6.13
2019-03-06T02:42:28.179Z,6.14
2019-03-06T02:43:03.872Z,6.14
2019-03-06T02:43:39.264Z,6.11
2019-03-06T02:44:14.681Z,6.09
2019-03-06T02:44:50.084Z,6.09
2019-03-06T02:45:25.492Z,6.09
2019-03-06T02:46:00.887Z,6.06
2019-03-06T02:46:36.276Z,5.98
2019-03-06T02:47:12.027Z,6.01
2019-03-06T02:47:47.727Z,6.07
2019-03-06T02:48:23.087Z,6.03
2019-03-06T02:48:58.457Z,6.01
2019-03-06T02:49:33.874Z,6.01
2019-03-06T02:50:10.692Z,5.97
2019-03-06T02:50:46.590Z,5.97
2019-03-06T02:51:22.065Z,5.97
2019-03-06T02:51:57.545Z,5.90
2019-03-06T02:52:32.952Z,5.86
2019-03-06T02:53:08.335Z,5.86
2019-03-06T02:53:44.119Z,5.85
2019-03-06T02:54:19.555Z,5.85
2019-03-06T02:54:55.224Z,5.80
2019-03-06T02:55:30.911Z,5.80
2019-03-06T02:56:06.380Z,5.78
2019-03-06T02:56:41.810Z,5.76
2019-03-06T02:57:17.465Z,5.77
2019-03-06T02:57:57.963Z,5.76
2019-03-06T02:58:44.262Z,5.75
2019-03-06T02:59:41.586Z,5.72
2019-03-06T03:00:40.954Z,5.72
2019-03-06T03:01:30.018Z,5.65
2019-03-06T03:02:23.484Z,5.64
2019-03-06T03:03:08.400Z,5.59
2019-03-06T03:04:06.790Z,5.60
2019-03-06T03:04:48.110Z,5.57
2019-03-06T03:05:54.399Z,5.52
2019-03-06T03:06:39.652Z,5.49
2019-03-06T03:07:17.319Z,5.40
2019-03-06T03:07:52.714Z,5.47
2019-03-06T03:08:28.426Z,5.45
2019-03-06T03:09:05.248Z,5.43
2019-03-06T03:09:40.948Z,5.44
2019-03-06T03:10:16.378Z,5.39
2019-03-06T03:10:51.746Z,5.39
2019-03-06T03:11:27.113Z,5.39
2019-03-06T03:12:02.502Z,5.43
2019-03-06T03:12:38.130Z,5.38
2019-03-06T03:13:13.551Z,5.36
2019-03-06T03:13:48.940Z,5.33
2019-03-06T03:14:24.352Z,5.30
2019-03-06T03:14:59.749Z,5.34
2019-03-06T03:15:35.118Z,5.48
2019-03-06T03:16:10.514Z,5.43
2019-03-06T03:16:46.339Z,5.46
2019-03-06T03:17:21.714Z,5.38
2019-03-06T03:17:57.438Z,5.38
2019-03-06T03:18:33.092Z,5.38
2019-03-06T03:19:08.502Z,5.36
2019-03-06T03:19:43.929Z,5.44
2019-03-06T03:20:19.314Z,5.41
2019-03-06T03:20:54.678Z,5.35
2019-03-06T03:21:30.079Z,5.35
2019-03-06T03:22:05.473Z,5.41
2019-03-06T03:22:41.139Z,5.39
2019-03-06T03:23:16.877Z,5.40
2019-03-06T03:23:52.492Z,5.35
2019-03-06T03:24:27.932Z,5.31
2019-03-06T03:25:03.339Z,5.28
2019-03-06T03:25:38.732Z,5.28
2019-03-06T03:26:14.163Z,5.21
2019-03-06T03:26:49.548Z,5.24
2019-03-06T03:27:24.966Z,5.20
2019-03-06T03:28:00.351Z,5.18
2019-03-06T03:28:35.738Z,5.18
2019-03-06T03:29:11.134Z,5.16
2019-03-06T03:29:46.863Z,5.19
2019-03-06T03:30:22.865Z,5.25
2019-03-06T03:30:58.236Z,5.32
2019-03-06T03:31:33.671Z,5.27
2019-03-06T03:32:09.094Z,5.21
2019-03-06T03:32:44.498Z,5.18
2019-03-06T03:33:19.886Z,5.22
2019-03-06T03:33:55.507Z,5.18
2019-03-06T03:34:30.896Z,5.15
2019-03-06T03:35:06.484Z,5.14
2019-03-06T03:35:43.330Z,5.19
2019-03-06T03:36:18.759Z,5.14
2019-03-06T03:36:54.140Z,5.11
2019-03-06T03:37:29.814Z,5.09
2019-03-06T03:38:05.489Z,5.18
2019-03-06T03:38:40.924Z,5.18
2019-03-06T03:39:16.422Z,5.14
2019-03-06T03:39:52.087Z,5.10
2019-03-06T03:40:27.472Z,5.11
2019-03-06T03:41:03.220Z,5.12
2019-03-06T03:41:38.763Z,5.09
2019-03-06T03:42:14.173Z,5.08
2019-03-06T03:42:49.953Z,5.06
2019-03-06T03:43:25.327Z,5.10
2019-03-06T03:44:01.088Z,5.09
2019-03-06T03:44:36.468Z,5.13
2019-03-06T03:45:12.450Z,5.10
2019-03-06T03:45:48.134Z,5.11
2019-03-06T03:46:23.531Z,5.15
2019-03-06T03:46:58.913Z,5.15
2019-03-06T03:47:34.297Z,5.16
2019-03-06T03:48:09.828Z,5.17
2019-03-06T03:48:45.215Z,5.20
2019-03-06T03:49:20.953Z,5.20
2019-03-06T03:49:56.331Z,5.24
2019-03-06T03:50:31.973Z,5.24
2019-03-06T03:51:07.632Z,5.24
2019-03-06T03:51:43.336Z,5.22
2019-03-06T03:52:19.358Z,5.25
2019-03-06T03:52:54.736Z,5.25
2019-03-06T03:53:30.156Z,5.32
2019-03-06T03:54:05.494Z,5.37
2019-03-06T03:54:40.892Z,5.44
2019-03-06T03:55:16.518Z,5.42
2019-03-06T03:55:51.910Z,5.46
2019-03-06T03:56:27.467Z,5.44
2019-03-06T03:57:03.088Z,5.42
2019-03-06T03:57:38.677Z,5.50
2019-03-06T03:58:14.126Z,5.50
2019-03-06T03:58:49.818Z,5.54
2019-03-06T03:59:25.210Z,5.56
2019-03-06T04:00:00.797Z,5.54
2019-03-06T04:00:36.193Z,5.52
2019-03-06T04:01:11.624Z,5.53
2019-03-06T04:01:47.089Z,5.50
2019-03-06T04:02:22.485Z,5.50
2019-03-06T04:02:58.138Z,5.48
2019-03-06T04:03:33.785Z,5.48
2019-03-06T04:04:09.213Z,5.41
2019-03-06T04:04:45.211Z,5.41
2019-03-06T04:05:21.191Z,5.42
2019-03-06T04:05:56.877Z,5.38
2019-03-06T04:06:32.275Z,5.38
2019-03-06T04:07:07.644Z,5.38
2019-03-06T04:07:43.075Z,5.37
2019-03-06T04:08:18.483Z,5.35
2019-03-06T04:08:54.329Z,5.30
2019-03-06T04:09:29.734Z,5.32
2019-03-06T04:10:06.357Z,5.31
2019-03-06T04:10:41.781Z,5.27
2019-03-06T04:11:17.431Z,5.24
2019-03-06T04:11:52.802Z,5.23
2019-03-06T04:12:28.185Z,5.22
2019-03-06T04:13:03.555Z,5.22
2019-03-06T04:13:38.977Z,5.18
2019-03-06T04:14:14.436Z,5.16
2019-03-06T04:14:50.071Z,5.14
2019-03-06T04:15:25.465Z,5.15
2019-03-06T04:16:01.203Z,5.12
2019-03-06T04:16:36.889Z,5.07
2019-03-06T04:17:12.317Z,5.07
2019-03-06T04:17:47.745Z,5.08
2019-03-06T04:18:23.124Z,5.03
2019-03-06T04:18:58.783Z,5.05
2019-03-06T04:19:34.728Z,5.04
2019-03-06T04:20:11.592Z,5.05
2019-03-06T04:20:47.269Z,5.00
2019-03-06T04:21:22.795Z,5.05
2019-03-06T04:21:58.493Z,5.13
2019-03-06T04:22:34.056Z,5.11
2019-03-06T04:23:09.451Z,5.08
2019-03-06T04:23:44.839Z,5.04
2019-03-06T04:24:20.251Z,5.01
2019-03-06T04:24:56.233Z,5.02
2019-03-06T04:25:31.662Z,4.97
2019-03-06T04:26:07.025Z,4.95
2019-03-06T04:26:42.453Z,4.93
2019-03-06T04:27:17.989Z,4.91
2019-03-06T04:27:53.599Z,4.91
2019-03-06T04:28:28.983Z,4.92
2019-03-06T04:29:04.641Z,4.90
2019-03-06T04:29:40.057Z,4.93
2019-03-06T04:30:15.669Z,4.91
2019-03-06T04:30:53.238Z,4.86
2019-03-06T04:31:28.712Z,4.89
2019-03-06T04:32:04.087Z,4.85
2019-03-06T04:32:39.507Z,4.84
2019-03-06T04:33:14.901Z,4.87
2019-03-06T04:33:50.646Z,4.93
2019-03-06T04:34:26.262Z,4.88
2019-03-06T04:35:02.077Z,4.87
2019-03-06T04:35:38.281Z,4.82
2019-03-06T04:36:13.762Z,4.79
2019-03-06T04:36:49.162Z,4.77
2019-03-06T04:37:24.619Z,4.76
2019-03-06T04:38:00.260Z,4.72
2019-03-06T04:38:35.627Z,4.71
2019-03-06T04:39:11.324Z,4.74
2019-03-06T04:39:47.051Z,4.74
2019-03-06T04:40:22.432Z,4.73
2019-03-06T04:40:57.857Z,4.70
2019-03-06T04:41:33.826Z,4.68
2019-03-06T04:42:10.133Z,4.71
2019-03-06T04:42:45.838Z,4.71
2019-03-06T04:43:21.487Z,4.74
2019-03-06T04:43:57.135Z,4.71
2019-03-06T04:44:32.516Z,4.70
2019-03-06T04:45:08.495Z,4.73
2019-03-06T04:45:44.324Z,4.73
2019-03-06T04:46:20.547Z,4.71
2019-03-06T04:46:55.983Z,4.72
2019-03-06T04:47:31.363Z,4.79
2019-03-06T04:48:07.038Z,4.76
2019-03-06T04:48:42.514Z,4.80
2019-03-06T04:49:18.183Z,4.74
2019-03-06T04:49:53.568Z,4.71
2019-03-06T04:50:28.969Z,4.70
2019-03-06T04:51:04.643Z,4.69
2019-03-06T04:51:40.077Z,4.74
2019-03-06T04:52:15.489Z,4.72
2019-03-06T04:52:50.973Z,4.75
2019-03-06T04:53:26.489Z,4.76
2019-03-06T04:54:02.106Z,4.93
2019-03-06T04:54:37.532Z,5.01
2019-03-06T04:55:13.070Z,5.03
2019-03-06T04:55:48.521Z,5.04
2019-03-06T04:56:24.161Z,4.98
2019-03-06T04:56:59.537Z,4.96
2019-03-06T04:57:35.422Z,4.97
2019-03-06T04:58:11.107Z,4.96
2019-03-06T04:58:46.845Z,4.95
2019-03-06T04:59:22.760Z,4.93
2019-03-06T04:59:58.420Z,4.90
2019-03-06T05:00:33.812Z,4.88
2019-03-06T05:01:09.447Z,4.86
2019-03-06T05:01:44.839Z,4.81
2019-03-06T05:02:20.243Z,4.80
2019-03-06T05:02:55.905Z,4.85
2019-03-06T05:03:31.275Z,4.85
2019-03-06T05:04:06.653Z,4.85
2019-03-06T05:04:42.428Z,4.83
2019-03-06T05:05:17.890Z,4.81
2019-03-06T05:05:53.521Z,4.85
2019-03-06T05:06:28.890Z,4.83
2019-03-06T05:07:04.856Z,4.87
2019-03-06T05:07:40.270Z,4.87
2019-03-06T05:08:15.950Z,4.85
2019-03-06T05:08:51.557Z,4.85
2019-03-06T05:09:26.957Z,4.91
2019-03-06T05:10:02.356Z,4.96
2019-03-06T05:10:37.818Z,4.90
2019-03-06T05:11:13.345Z,4.91
2019-03-06T05:11:49.084Z,4.91
2019-03-06T05:12:24.457Z,4.89
2019-03-06T05:12:59.827Z,4.86
2019-03-06T05:13:35.232Z,4.84
2019-03-06T05:14:10.723Z,4.83
2019-03-06T05:14:46.465Z,4.80
2019-03-06T05:15:22.150Z,4.78
2019-03-06T05:15:57.532Z,4.75
2019-03-06T05:16:55.816Z,4.80
2019-03-06T05:17:50.251Z,4.79
2019-03-06T05:18:35.678Z,4.78
2019-03-06T05:19:11.088Z,4.83
2019-03-06T05:19:46.605Z,4.89
2019-03-06T05:20:22.226Z,4.90
2019-03-06T05:20:57.900Z,4.87
2019-03-06T05:21:33.280Z,4.93
2019-03-06T05:22:08.763Z,4.97
2019-03-06T05:22:44.171Z,4.96
2019-03-06T05:23:19.657Z,4.90
2019-03-06T05:23:55.320Z,4.89
2019-03-06T05:24:30.966Z,4.85
2019-03-06T05:25:06.671Z,4.86
2019-03-06T05:25:42.108Z,4.86
2019-03-06T05:26:17.886Z,4.87
2019-03-06T05:26:53.351Z,4.86
2019-03-06T05:27:28.736Z,4.84
2019-03-06T05:28:04.106Z,4.84
2019-03-06T05:28:40.078Z,4.82
2019-03-06T05:29:15.988Z,4.83
2019-03-06T05:29:51.381Z,4.90
2019-03-06T05:30:27.855Z,4.87
2019-03-06T05:31:03.224Z,4.89
2019-03-06T05:31:38.891Z,4.89
2019-03-06T05:32:28.813Z,4.89
2019-03-06T05:33:04.290Z,4.91
2019-03-06T05:33:39.685Z,4.88
2019-03-06T05:34:15.415Z,4.87
2019-03-06T05:34:51.145Z,4.85
2019-03-06T05:35:56.137Z,4.85
2019-03-06T05:37:12.528Z,4.85
2019-03-06T05:38:02.958Z,4.79
2019-03-06T05:38:43.112Z,4.75
2019-03-06T05:39:18.533Z,4.75
2019-03-06T05:39:53.899Z,4.74
2019-03-06T05:40:29.711Z,4.72
2019-03-06T05:41:05.093Z,4.65
2019-03-06T05:41:41.169Z,4.65
2019-03-06T05:42:16.865Z,4.64
2019-03-06T05:42:52.248Z,4.62
2019-03-06T05:43:27.661Z,4.63
2019-03-06T05:44:03.053Z,4.63
2019-03-06T05:44:38.696Z,4.65
2019-03-06T05:45:15.753Z,4.67
2019-03-06T05:45:51.362Z,4.68
2019-03-06T05:46:27.031Z,4.67
2019-03-06T05:47:02.693Z,4.64
2019-03-06T05:47:38.076Z,4.66
2019-03-06T05:48:13.795Z,4.72
2019-03-06T05:48:49.225Z,4.69
2019-03-06T05:49:25.206Z,4.69
2019-03-06T05:50:00.597Z,4.70
2019-03-06T05:50:36.560Z,4.72
2019-03-06T05:51:12.163Z,4.73
2019-03-06T05:51:47.798Z,4.77
2019-03-06T05:52:23.164Z,4.75
2019-03-06T05:52:58.785Z,4.73
2019-03-06T05:53:34.694Z,4.71
2019-03-06T05:54:10.140Z,4.71
2019-03-06T05:54:45.603Z,4.71
2019-03-06T05:55:21.346Z,4.69
2019-03-06T05:55:56.730Z,4.71
2019-03-06T05:56:32.103Z,4.65
2019-03-06T05:57:07.831Z,4.66
2019-03-06T05:57:43.663Z,4.63
2019-03-06T05:58:19.065Z,4.67
2019-03-06T05:58:54.743Z,4.71
2019-03-06T05:59:30.452Z,4.70
2019-03-06T06:00:06.116Z,4.68
2019-03-06T06:00:41.583Z,4.68
2019-03-06T06:01:17.101Z,4.68
2019-03-06T06:01:53.092Z,4.68
2019-03-06T06:02:28.490Z,4.66
2019-03-06T06:03:04.063Z,4.61
2019-03-06T06:03:39.525Z,4.67
2019-03-06T06:04:15.282Z,4.71
2019-03-06T06:04:50.766Z,4.72
2019-03-06T06:05:26.199Z,4.71
2019-03-06T06:06:01.603Z,4.74
2019-03-06T06:06:37.270Z,4.71
2019-03-06T06:07:12.799Z,4.70
2019-03-06T06:07:48.192Z,4.74
2019-03-06T06:08:23.864Z,4.74
2019-03-06T06:08:59.561Z,4.82
2019-03-06T06:09:35.210Z,4.85
2019-03-06T06:10:11.211Z,4.86
2019-03-06T06:10:46.657Z,4.91
2019-03-06T06:11:22.289Z,4.89
2019-03-06T06:11:57.964Z,4.86
2019-03-06T06:12:33.764Z,4.91
2019-03-06T06:13:09.361Z,4.95
2019-03-06T06:13:45.141Z,4.96
2019-03-06T06:14:20.706Z,4.95
2019-03-06T06:14:56.345Z,4.98
2019-03-06T06:15:31.981Z,4.98
2019-03-06T06:16:07.703Z,4.98
2019-03-06T06:16:43.183Z,4.97
2019-03-06T06:17:18.906Z,4.96
2019-03-06T06:17:54.270Z,4.96
2019-03-06T06:18:29.908Z,4.96
2019-03-06T06:19:05.297Z,4.99
2019-03-06T06:19:40.808Z,5.06
2019-03-06T06:20:16.690Z,5.08
2019-03-06T06:21:02.031Z,5.12
2019-03-06T06:22:14.733Z,5.26
2019-03-06T06:23:12.154Z,5.18
2019-03-06T06:23:51.490Z,5.15
2019-03-06T06:24:29.229Z,5.11
2019-03-06T06:25:04.733Z,5.20
2019-03-06T06:25:40.439Z,5.28
2019-03-06T06:26:15.883Z,5.22
2019-03-06T06:26:51.282Z,5.23
2019-03-06T06:27:26.686Z,5.21
2019-03-06T06:28:02.390Z,5.27
2019-03-06T06:28:37.818Z,5.28
2019-03-06T06:29:13.678Z,5.25
2019-03-06T06:29:49.067Z,5.22
2019-03-06T06:30:24.760Z,5.29
2019-03-06T06:31:00.165Z,5.29
2019-03-06T06:31:36.128Z,5.31
2019-03-06T06:32:12.161Z,5.25
2019-03-06T06:32:47.855Z,5.24
2019-03-06T06:33:23.497Z,5.32
2019-03-06T06:33:58.881Z,5.31
2019-03-06T06:34:34.297Z,5.38
2019-03-06T06:35:09.913Z,5.40
2019-03-06T06:35:45.591Z,5.39
2019-03-06T06:36:20.976Z,5.40
2019-03-06T06:36:56.516Z,5.47
2019-03-06T06:37:32.174Z,5.37
2019-03-06T06:38:07.658Z,5.35
2019-03-06T06:38:43.093Z,5.32
2019-03-06T06:39:18.511Z,5.36
2019-03-06T06:39:53.926Z,5.34
2019-03-06T06:40:29.304Z,5.37
2019-03-06T06:41:04.691Z,5.50
2019-03-06T06:41:40.425Z,5.62
2019-03-06T06:42:16.102Z,5.59
2019-03-06T06:42:51.623Z,5.51
2019-03-06T06:43:26.987Z,5.50
2019-03-06T06:44:02.648Z,5.52
2019-03-06T06:44:38.326Z,5.53
2019-03-06T06:45:13.990Z,5.45
2019-03-06T06:45:49.706Z,5.46
2019-03-06T06:46:25.371Z,5.43
2019-03-06T06:47:00.756Z,5.42
2019-03-06T06:47:36.421Z,5.41
2019-03-06T06:48:17.114Z,5.43
2019-03-06T06:48:52.684Z,5.49
2019-03-06T06:49:28.140Z,5.45
2019-03-06T06:50:03.849Z,5.43
2019-03-06T06:50:41.216Z,5.43
2019-03-06T06:52:06.612Z,5.44
2019-03-06T06:53:29.654Z,5.39
2019-03-06T06:54:20.005Z,5.40
2019-03-06T06:55:35.833Z,5.47
2019-03-06T06:56:56.913Z,5.48
2019-03-06T06:58:00.155Z,5.52
2019-03-06T06:59:19.063Z,5.54
2019-03-06T07:00:29.702Z,5.52
2019-03-06T07:02:07.744Z,5.56
2019-03-06T07:03:52.123Z,5.59
2019-03-06T07:05:29.462Z,5.52
2019-03-06T07:06:16.982Z,5.56
2019-03-06T07:07:12.880Z,5.63
2019-03-06T07:08:16.167Z,5.63
2019-03-06T07:09:03.869Z,5.66
2019-03-06T07:09:50.815Z,5.71
2019-03-06T07:10:43.041Z,5.83
2019-03-06T07:11:37.246Z,5.85
2019-03-06T07:12:44.632Z,5.93
2019-03-06T07:13:25.869Z,5.93
2019-03-06T07:14:29.996Z,6.02
2019-03-06T07:15:31.627Z,6.10
2019-03-06T07:16:20.874Z,6.15
2019-03-06T07:17:18.058Z,6.22
2019-03-06T07:18:11.690Z,6.21
2019-03-06T07:19:15.230Z,6.23
2019-03-06T07:20:10.056Z,6.25
2019-03-06T07:21:19.830Z,6.29
2019-03-06T07:22:07.981Z,6.32
2019-03-06T07:22:54.299Z,6.42
2019-03-06T07:23:37.858Z,6.40
2019-03-06T07:24:35.326Z,6.51
2019-03-06T07:25:38.572Z,6.56
2019-03-06T07:26:39.297Z,6.64
2019-03-06T07:27:36.523Z,6.62
2019-03-06T07:28:34.292Z,6.62
2019-03-06T07:29:25.023Z,6.71
2019-03-06T07:30:24.747Z,6.70
2019-03-06T07:31:09.916Z,6.74
2019-03-06T07:31:56.223Z,6.79
2019-03-06T07:32:49.191Z,6.89
2019-03-06T07:33:55.653Z,7.09
2019-03-06T07:34:43.081Z,7.19
2019-03-06T07:36:29.894Z,7.19
2019-03-06T07:37:08.828Z,7.15
2019-03-06T07:37:53.892Z,7.19
2019-03-06T07:38:29.272Z,7.19
2019-03-06T07:39:29.460Z,7.19
2019-03-06T07:40:10.637Z,7.25
2019-03-06T07:41:03.810Z,7.29
2019-03-06T07:41:49.976Z,7.39
2019-03-06T07:42:43.343Z,7.45
2019-03-06T07:43:36.016Z,7.45
2019-03-06T07:44:42.436Z,7.44
2019-03-06T07:45:59.829Z,7.48
2019-03-06T07:46:54.387Z,7.59
2019-03-06T07:47:52.180Z,7.66
2019-03-06T07:48:38.752Z,7.73
2019-03-06T07:49:25.103Z,7.73
2019-03-06T07:50:31.729Z,7.84
2019-03-06T07:51:34.192Z,7.88
2019-03-06T07:52:26.413Z,8.00
2019-03-06T07:53:58.939Z,7.98
2019-03-06T07:54:53.291Z,7.98
2019-03-06T07:55:39.261Z,8.01
2019-03-06T07:56:27.927Z,8.24
2019-03-06T07:57:22.273Z,8.24
2019-03-06T07:58:34.048Z,8.39
2019-03-06T07:59:09.570Z,8.39
2019-03-06T07:59:45.254Z,8.36
2019-03-06T08:00:21.203Z,8.41
2019-03-06T08:00:56.635Z,8.41
2019-03-06T08:01:34.859Z,8.43
2019-03-06T08:02:12.821Z,8.44
2019-03-06T08:03:07.328Z,8.44
2019-03-06T08:03:50.382Z,8.40
2019-03-06T08:04:26.073Z,8.68
2019-03-06T08:05:01.725Z,8.65
2019-03-06T08:05:37.114Z,8.96
2019-03-06T08:06:12.589Z,8.96
2019-03-06T08:07:13.581Z,8.78
2019-03-06T08:07:48.976Z,8.49
2019-03-06T08:08:24.361Z,8.49
2019-03-06T08:09:00.023Z,8.70
2019-03-06T08:09:35.731Z,8.70
2019-03-06T08:10:14.364Z,8.63
2019-03-06T08:10:50.548Z,8.62
2019-03-06T08:11:34.319Z,8.51
2019-03-06T08:12:28.715Z,8.75
2019-03-06T08:13:12.924Z,8.97
2019-03-06T08:14:05.563Z,8.97
2019-03-06T08:14:52.400Z,8.99
2019-03-06T08:15:45.194Z,8.82
2019-03-06T08:16:35.368Z,8.82
2019-03-06T08:17:38.885Z,8.84
2019-03-06T08:18:32.022Z,8.98
2019-03-06T08:19:27.534Z,8.49
2019-03-06T08:20:16.235Z,8.48
2019-03-06T08:21:13.853Z,8.58
2019-03-06T08:22:05.825Z,8.58
2019-03-06T08:22:58.724Z,8.35
2019-03-06T08:23:44.329Z,8.49
2019-03-06T08:24:37.645Z,8.66
2019-03-06T08:25:35.236Z,8.49
2019-03-06T08:26:11.149Z,8.49
2019-03-06T08:26:46.874Z,8.55
2019-03-06T08:27:22.784Z,8.69
2019-03-06T08:27:58.821Z,8.48
2019-03-06T08:28:34.196Z,8.38
2019-03-06T08:29:09.600Z,8.33
2019-03-06T08:29:45.024Z,8.27
2019-03-06T08:30:20.512Z,8.27
2019-03-06T08:31:16.641Z,8.34
2019-03-06T08:31:54.974Z,8.37
2019-03-06T08:32:34.494Z,8.34
2019-03-06T08:33:17.995Z,8.19
2019-03-06T08:33:47.188Z,8.33
2019-03-06T08:34:22.909Z,8.33
2019-03-06T08:34:58.286Z,8.45
2019-03-06T08:35:33.660Z,8.39
2019-03-06T08:36:09.178Z,8.39
2019-03-06T08:36:44.694Z,8.39
2019-03-06T08:37:20.325Z,8.39
2019-03-06T08:37:55.984Z,8.39
2019-03-06T08:38:31.359Z,8.40
2019-03-06T08:39:17.031Z,8.39
2019-03-06T08:39:52.408Z,8.31